Time;durP1;ratioP1;P1;durP2;ratioP2;P2;SDS_P1;SDS_P2;PMS_P1;PMS_P2;Temp;Humidity;BMP_temperature;BMP_pressure;BME280_temperature;BME280_humidity;BME280_pressure;Samples;Min_cycle;Max_cycle;Signal;HPM_P1;HPM_P2
2022/03/23 00:01:44;;;;;;;21.65;11.55;;;;;;;14.19;41.70;102917.41;5057065;28;20048;-57
2022/03/23 00:04:12;;;;;;;22.50;11.65;;;;;;;14.17;42.01;102918.63;5063101;28;20156;-55
2022/03/23 00:06:40;;;;;;;20.70;11.18;;;;;;;14.14;41.50;102910.91;5060014;28;20136;-55
2022/03/23 00:09:09;;;;;;;21.17;11.82;;;;;;;14.12;41.61;102913.81;5062553;28;20079;-56
2022/03/23 00:11:37;;;;;;;26.25;12.82;;;;;;;14.10;41.90;102913.19;5062409;28;20052;-56
2022/03/23 00:14:06;;;;;;;22.85;12.05;;;;;;;14.07;41.61;102913.56;5056247;28;20503;-56
2022/03/23 00:16:36;;;;;;;22.63;12.00;;;;;;;14.06;41.70;102916.47;5054445;28;20053;-55
2022/03/23 00:19:04;;;;;;;22.15;12.57;;;;;;;14.02;42.02;102919.56;5050850;28;20110;-55
2022/03/23 00:21:32;;;;;;;21.17;12.15;;;;;;;14.01;41.90;102908.94;5061661;28;20078;-56
2022/03/23 00:24:00;;;;;;;20.40;12.23;;;;;;;13.98;41.80;102912.88;5059031;28;20087;-56
2022/03/23 00:26:29;;;;;;;20.20;12.60;;;;;;;13.95;41.95;102910.53;5058335;28;20132;-56
2022/03/23 00:28:57;;;;;;;25.75;12.85;;;;;;;13.94;42.04;102918.84;5057314;28;20076;-56
2022/03/23 00:31:25;;;;;;;24.60;11.95;;;;;;;13.92;42.18;102913.63;5062371;28;20072;-56
2022/03/23 00:33:54;;;;;;;21.58;12.48;;;;;;;13.90;42.06;102918.41;5056159;28;20052;-56
2022/03/23 00:36:22;;;;;;;23.63;13.13;;;;;;;13.90;41.66;102917.56;5059537;28;20041;-55
2022/03/23 00:38:50;;;;;;;25.90;13.02;;;;;;;13.88;41.78;102916.91;5059587;28;20068;-56
2022/03/23 00:41:18;;;;;;;19.65;11.52;;;;;;;13.85;41.86;102923.56;5065366;28;20084;-56
2022/03/23 00:43:47;;;;;;;21.30;13.18;;;;;;;13.84;41.97;102915.66;5064874;28;20075;-55
2022/03/23 00:46:15;;;;;;;28.88;12.98;;;;;;;13.84;41.73;102918.38;5057672;28;20173;-56
2022/03/23 00:48:43;;;;;;;26.92;13.07;;;;;;;13.80;42.17;102923.31;5064112;28;20596;-56
2022/03/23 00:51:11;;;;;;;25.15;12.27;;;;;;;13.79;42.00;102915.41;5065049;28;20111;-56
2022/03/23 00:53:39;;;;;;;21.92;12.68;;;;;;;13.79;42.13;102923.50;5063252;28;20179;-56
2022/03/23 00:56:07;;;;;;;27.30;12.95;;;;;;;13.76;42.33;102916.63;5062403;28;20088;-56
2022/03/23 00:58:34;;;;;;;27.95;13.50;;;;;;;13.74;42.10;102918.69;5065469;28;20096;-56
2022/03/23 01:01:03;;;;;;;21.90;13.02;;;;;;;13.72;42.19;102920.75;5056920;28;20080;-56
2022/03/23 01:03:31;;;;;;;23.88;13.73;;;;;;;13.72;41.90;102915.34;5060700;28;20049;-56
2022/03/23 01:05:59;;;;;;;18.50;11.88;;;;;;;13.68;42.27;102917.59;5061362;28;20436;-56
2022/03/23 01:08:27;;;;;;;22.92;12.75;;;;;;;13.66;42.46;102913.41;5060251;28;20084;-56
2022/03/23 01:10:56;;;;;;;21.60;12.90;;;;;;;13.65;42.55;102915.25;5058669;28;20120;-56
2022/03/23 01:13:23;;;;;;;26.42;13.32;;;;;;;13.62;42.46;102910.25;5065056;28;20104;-55
2022/03/23 01:15:51;;;;;;;24.92;12.52;;;;;;;13.55;42.43;102897.69;5062224;28;20084;-55
2022/03/23 01:18:20;;;;;;;26.30;13.32;;;;;;;13.58;42.46;102902.72;5052916;28;20084;-55
2022/03/23 01:20:48;;;;;;;19.58;12.25;;;;;;;13.54;42.76;102904.97;5055980;28;20130;-56
2022/03/23 01:23:16;;;;;;;19.95;12.43;;;;;;;13.53;42.88;102908.69;5061589;28;20160;-55
2022/03/23 01:25:43;;;;;;;23.05;13.38;;;;;;;13.49;42.63;102907.41;5065118;28;20068;-55
2022/03/23 01:28:11;;;;;;;26.08;12.63;;;;;;;13.49;42.68;102901.16;5064655;28;20122;-56
2022/03/23 01:30:39;;;;;;;24.23;13.52;;;;;;;13.46;42.73;102899.69;5061851;28;20513;-56
2022/03/23 01:33:07;;;;;;;21.25;12.32;;;;;;;13.44;42.88;102903.59;5064648;28;20109;-57
2022/03/23 01:35:36;;;;;;;25.02;13.98;;;;;;;13.42;42.92;102894.84;5055450;28;20084;-57
2022/03/23 01:38:04;;;;;;;24.13;13.00;;;;;;;13.40;42.57;102895.03;5060967;28;20113;-55
2022/03/23 01:40:31;;;;;;;27.17;13.35;;;;;;;13.39;42.67;102900.63;5063293;28;20104;-56
2022/03/23 01:42:59;;;;;;;18.10;12.52;;;;;;;13.35;42.68;102892.91;5051110;28;20076;-56
2022/03/23 01:45:27;;;;;;;22.77;12.40;;;;;;;13.33;42.81;102889.56;5063008;28;20084;-56
2022/03/23 01:47:55;;;;;;;23.55;12.63;;;;;;;13.31;42.78;102896.19;5063823;28;20060;-56
2022/03/23 01:50:23;;;;;;;19.25;12.63;;;;;;;13.30;43.13;102891.81;5061610;28;20068;-56
2022/03/23 01:52:52;;;;;;;19.25;12.55;;;;;;;13.28;42.87;102904.66;5065481;28;20180;-56
2022/03/23 01:55:20;;;;;;;19.92;12.75;;;;;;;13.26;42.84;102896.75;5059300;28;20072;-56
2022/03/23 01:57:51;;;;;;;25.25;13.25;;;;;;;13.23;43.14;102890.88;5062627;28;20049;-55
2022/03/23 02:00:20;;;;;;;25.80;13.82;;;;;;;13.20;43.23;102894.81;5062381;28;20053;-56
2022/03/23 02:02:48;;;;;;;24.52;13.85;;;;;;;13.18;43.30;102891.44;5064925;28;20049;-56
2022/03/23 02:05:16;;;;;;;20.58;12.90;;;;;;;13.17;42.75;102881.69;5064628;28;20052;-56
2022/03/23 02:07:45;;;;;;;21.92;12.45;;;;;;;13.16;43.16;102889.94;5055754;28;20073;-55
2022/03/23 02:10:14;;;;;;;23.00;12.27;;;;;;;13.14;42.78;102890.13;5059236;28;20057;-56
2022/03/23 02:12:42;;;;;;;18.77;12.40;;;;;;;13.13;43.05;102888.44;5058068;28;20069;-56
2022/03/23 02:15:13;;;;;;;20.52;12.52;;;;;;;13.11;42.99;102874.31;5063393;28;20072;-56
2022/03/23 02:17:43;;;;;;;27.70;11.95;;;;;;;13.10;42.81;102883.44;5063243;28;20052;-56
2022/03/23 02:20:12;;;;;;;20.48;12.30;;;;;;;13.08;42.88;102887.34;5058963;28;20049;-56
2022/03/23 02:22:41;;;;;;;19.90;13.10;;;;;;;13.08;43.16;102898.13;5057756;28;20084;-56
2022/03/23 02:25:10;;;;;;;20.85;12.85;;;;;;;13.04;43.31;102887.72;5063012;28;20076;-56
2022/03/23 02:27:40;;;;;;;22.02;12.10;;;;;;;13.03;43.24;102887.91;5055204;28;20053;-57
2022/03/23 02:30:10;;;;;;;22.17;12.52;;;;;;;13.00;43.21;102889.13;5047576;28;20128;-56
2022/03/23 02:32:38;;;;;;;22.92;13.38;;;;;;;12.99;43.37;102892.00;5054783;28;20121;-56
2022/03/23 02:35:08;;;;;;;27.10;12.65;;;;;;;12.98;43.08;102887.63;5057883;28;20099;-55
2022/03/23 02:37:36;;;;;;;22.33;12.07;;;;;;;12.95;43.13;102885.31;5062380;28;20045;-56
2022/03/23 02:40:08;;;;;;;23.65;12.57;;;;;;;12.93;43.30;102890.06;5056432;28;20059;-56
2022/03/23 02:42:37;;;;;;;21.92;12.45;;;;;;;12.90;43.51;102888.56;5061398;28;20053;-55
2022/03/23 02:45:05;;;;;;;19.15;12.23;;;;;;;12.89;43.27;102886.06;5062677;28;20049;-56
2022/03/23 02:47:34;;;;;;;23.55;12.88;;;;;;;12.85;43.26;102885.59;5061426;28;20048;-56
2022/03/23 02:50:02;;;;;;;19.70;12.05;;;;;;;12.83;43.49;102892.19;5059208;28;20076;-56
2022/03/23 02:52:31;;;;;;;27.60;12.38;;;;;;;12.82;43.36;102887.84;5063271;28;20091;-55
2022/03/23 03:03:49;;;;;;;19.63;11.13;;;;;;;12.71;43.40;102879.19;5059319;28;20049;-56
2022/03/23 03:06:17;;;;;;;17.17;10.38;;;;;;;12.68;43.62;102884.13;5059184;28;20080;-58
2022/03/23 03:08:47;;;;;;;22.50;11.82;;;;;;;12.67;43.62;102883.28;5062275;28;20172;-57
2022/03/23 03:11:17;;;;;;;22.73;12.75;;;;;;;12.65;43.40;102881.78;5059911;28;20049;-55
2022/03/23 03:13:49;;;;;;;21.55;12.05;;;;;;;12.62;43.67;102883.00;5060401;28;20045;-56
2022/03/23 03:16:17;;;;;;;22.42;12.38;;;;;;;12.60;43.53;102884.19;5054758;28;20049;-55
2022/03/23 03:18:46;;;;;;;21.63;13.02;;;;;;;12.58;43.55;102887.09;5059313;28;20045;-56
2022/03/23 03:21:15;;;;;;;20.63;12.18;;;;;;;12.56;43.61;102888.28;5062410;28;20156;-55
2022/03/23 03:23:44;;;;;;;20.35;11.95;;;;;;;12.55;43.45;102890.16;5057028;28;20053;-56
2022/03/23 03:26:12;;;;;;;25.88;13.40;;;;;;;12.52;43.58;102886.97;5057030;28;20088;-56
2022/03/23 03:28:41;;;;;;;19.48;12.20;;;;;;;12.52;43.72;102892.38;5049363;28;20083;-56
2022/03/23 03:31:11;;;;;;;19.15;12.63;;;;;;;12.49;43.72;102895.44;5060525;28;20083;-57
2022/03/23 03:33:40;;;;;;;25.02;12.18;;;;;;;12.47;43.60;102887.53;5061771;28;20049;-56
2022/03/23 03:36:09;;;;;;;22.83;12.75;;;;;;;12.46;43.65;102893.13;5054633;28;20121;-56
2022/03/23 03:38:38;;;;;;;21.98;12.85;;;;;;;12.44;43.66;102882.50;5059297;28;20048;-56
2022/03/23 03:41:06;;;;;;;18.17;12.15;;;;;;;12.44;43.67;102895.16;5051163;28;20115;-56
2022/03/23 03:43:35;;;;;;;25.88;14.20;;;;;;;12.42;43.68;102886.41;5056778;28;20037;-57
2022/03/23 03:46:06;;;;;;;22.73;13.45;;;;;;;12.40;43.40;102886.59;5061498;28;20056;-56
2022/03/23 03:48:36;;;;;;;26.67;14.23;;;;;;;12.39;43.63;102890.31;5060733;28;20045;-56
2022/03/23 03:51:03;;;;;;;23.67;14.05;;;;;;;12.34;43.43;102896.25;5056169;28;20144;-56
2022/03/23 03:53:31;;;;;;;19.08;12.93;;;;;;;12.35;43.79;102897.09;5057325;28;20068;-56
2022/03/23 03:56:07;;;;;;;20.88;13.25;;;;;;;12.34;43.73;102892.72;5059108;28;20049;-56
2022/03/23 03:58:35;;;;;;;23.85;13.32;;;;;;;12.32;43.74;102892.91;5062274;28;20182;-57
2022/03/23 04:01:03;;;;;;;23.40;12.48;;;;;;;12.30;43.78;102897.66;5061996;28;20052;-55
2022/03/23 04:03:31;;;;;;;24.30;14.25;;;;;;;12.28;43.82;102902.38;5059081;28;20093;-55
2022/03/23 04:06:00;;;;;;;22.08;13.82;;;;;;;12.27;43.86;102897.19;5053877;28;20075;-56
2022/03/23 04:08:28;;;;;;;20.45;12.95;;;;;;;12.25;43.68;102901.91;5061200;28;20045;-56
2022/03/23 04:10:56;;;;;;;28.02;14.50;;;;;;;12.20;43.86;102888.97;5058910;28;20054;-55
2022/03/23 04:13:24;;;;;;;27.60;14.45;;;;;;;12.19;43.86;102900.78;5056673;28;20068;-57
2022/03/23 04:15:52;;;;;;;25.38;12.68;;;;;;;12.18;43.88;102906.34;5060594;28;20104;-60
2022/03/23 04:18:19;;;;;;;22.95;13.43;;;;;;;12.16;43.96;102908.41;5049920;28;20198;-55
2022/03/23 04:20:47;;;;;;;20.38;13.82;;;;;;;12.15;43.87;102909.41;5050669;28;20040;-55
2022/03/23 04:23:16;;;;;;;21.67;13.63;;;;;;;12.13;43.86;102906.09;5057566;28;20072;-56
2022/03/23 04:25:44;;;;;;;26.90;13.63;;;;;;;12.12;44.01;102912.50;5064924;28;20047;-57
2022/03/23 04:28:12;;;;;;;21.98;14.55;;;;;;;12.09;43.93;102902.94;5068992;28;20107;-57
2022/03/23 04:30:41;;;;;;;21.50;14.23;;;;;;;12.08;43.97;102911.19;5066995;28;20049;-55
2022/03/23 04:33:09;;;;;;;25.95;13.93;;;;;;;12.04;43.93;102911.56;5061723;28;20052;-55
2022/03/23 04:35:37;;;;;;;22.13;13.98;;;;;;;12.03;44.04;102919.81;5054918;28;20045;-56
2022/03/23 04:38:05;;;;;;;20.67;14.50;;;;;;;12.02;44.01;102920.84;5052078;28;20045;-56
2022/03/23 04:40:37;;;;;;;28.80;14.57;;;;;;;12.01;43.98;102916.47;5056692;28;20045;-58
2022/03/23 04:43:05;;;;;;;24.05;13.70;;;;;;;11.99;44.23;102921.19;5067595;28;20049;-56
2022/03/23 04:45:33;;;;;;;23.25;13.70;;;;;;;11.97;43.87;102929.47;5055279;28;20068;-56
2022/03/23 04:48:01;;;;;;;26.58;14.43;;;;;;;11.95;44.06;102939.59;5062593;28;20072;-56
2022/03/23 04:50:29;;;;;;;24.58;15.50;;;;;;;11.94;44.11;102937.91;5058728;28;20045;-56
2022/03/23 04:52:57;;;;;;;22.45;14.50;;;;;;;11.90;44.07;102935.75;5063413;28;20049;-56
2022/03/23 04:55:25;;;;;;;24.63;15.30;;;;;;;11.89;44.06;102936.78;5054771;28;20046;-56
2022/03/23 04:57:54;;;;;;;24.85;15.55;;;;;;;11.86;44.09;102934.44;5071468;28;20057;-55
2022/03/23 05:00:22;;;;;;;24.42;14.77;;;;;;;11.84;44.03;102929.22;5068007;28;20081;-56
2022/03/23 05:02:50;;;;;;;32.88;15.90;;;;;;;11.84;44.02;102944.56;5052490;28;20056;-56
2022/03/23 05:05:18;;;;;;;27.60;15.52;;;;;;;11.83;43.90;102937.47;5052683;28;20132;-57
2022/03/23 05:07:46;;;;;;;27.20;14.73;;;;;;;11.81;43.97;102937.66;5055529;28;20080;-56
2022/03/23 05:10:15;;;;;;;26.05;15.23;;;;;;;11.81;44.05;102939.53;5059103;28;20049;-55
2022/03/23 05:12:44;;;;;;;25.77;14.60;;;;;;;11.79;43.98;102939.69;5065444;28;20088;-57
2022/03/23 05:15:15;;;;;;;21.75;15.32;;;;;;;11.78;44.03;102935.31;5042447;28;20073;-57
2022/03/23 05:17:44;;;;;;;22.95;14.77;;;;;;;11.77;44.05;102938.16;5059083;28;20072;-58
2022/03/23 05:20:13;;;;;;;25.20;14.10;;;;;;;11.76;43.99;102944.56;5060411;28;20079;-57
2022/03/23 05:22:42;;;;;;;24.63;15.18;;;;;;;11.72;44.00;102942.22;5064712;28;20139;-56
2022/03/23 05:25:10;;;;;;;25.73;14.90;;;;;;;11.72;44.00;102941.41;5070754;28;20059;-57
2022/03/23 05:27:40;;;;;;;24.75;13.85;;;;;;;11.71;43.89;102937.03;5065550;28;20080;-57
2022/03/23 05:30:10;;;;;;;27.80;15.13;;;;;;;11.69;43.78;102939.91;5063893;28;20094;-57
2022/03/23 05:32:40;;;;;;;23.80;14.65;;;;;;;11.68;43.98;102940.06;5075695;28;20052;-57
2022/03/23 05:35:09;;;;;;;25.00;14.55;;;;;;;11.66;44.04;102940.25;5064217;28;20129;-55
2022/03/23 05:37:37;;;;;;;24.63;14.38;;;;;;;11.63;44.11;102948.69;5062403;28;20069;-56
2022/03/23 05:40:11;;;;;;;24.48;15.80;;;;;;;11.62;44.15;102952.41;5057181;28;20510;-56
2022/03/23 05:42:40;;;;;;;26.15;14.70;;;;;;;11.60;44.06;102950.91;5065012;28;20048;-56
2022/03/23 05:45:09;;;;;;;25.17;15.65;;;;;;;11.58;44.11;102950.22;5063887;28;20124;-56
2022/03/23 05:47:37;;;;;;;26.10;14.60;;;;;;;11.56;44.31;102955.78;5059848;28;20064;-56
2022/03/23 05:50:07;;;;;;;27.90;15.07;;;;;;;11.54;44.23;102952.44;5063173;28;20072;-57
2022/03/23 05:52:35;;;;;;;24.00;14.65;;;;;;;11.52;44.20;102950.94;5063298;28;20447;-56
2022/03/23 05:55:05;;;;;;;23.48;14.93;;;;;;;11.51;44.31;102957.34;5064257;28;20053;-57
2022/03/23 05:57:33;;;;;;;24.42;15.18;;;;;;;11.49;44.06;102957.50;5065239;28;20155;-57
2022/03/23 06:00:01;;;;;;;27.85;14.80;;;;;;;11.48;44.32;102952.31;5057075;28;20052;-57
2022/03/23 06:02:28;;;;;;;21.30;13.32;;;;;;;11.45;44.34;102956.19;5062034;28;20060;-56
2022/03/23 06:04:56;;;;;;;29.95;15.30;;;;;;;11.45;44.21;102952.66;5063542;28;20045;-53
2022/03/23 06:07:25;;;;;;;20.98;13.75;;;;;;;11.43;44.48;102960.91;5065079;28;20107;-56
2022/03/23 06:09:53;;;;;;;27.67;15.95;;;;;;;11.43;44.30;102954.69;5062196;28;20045;-57
2022/03/23 06:12:21;;;;;;;22.83;15.20;;;;;;;11.39;44.39;102957.72;5061000;28;20048;-55
2022/03/23 06:14:49;;;;;;;24.20;15.65;;;;;;;11.39;44.17;102970.34;5060710;28;20150;-56
2022/03/23 06:17:16;;;;;;;29.65;14.40;;;;;;;11.36;44.37;102965.31;5061611;28;20107;-55
2022/03/23 06:19:44;;;;;;;23.13;15.18;;;;;;;11.35;44.18;102964.47;5056491;28;20180;-56
2022/03/23 06:22:12;;;;;;;25.45;15.57;;;;;;;11.33;44.46;102963.81;5061955;28;20077;-57
2022/03/23 06:24:45;;;;;;;25.35;14.95;;;;;;;11.33;44.35;102965.66;5047846;28;20061;-57
2022/03/23 06:27:12;;;;;;;32.42;15.93;;;;;;;11.32;44.37;102964.00;5055368;28;20076;-58
2022/03/23 06:29:40;;;;;;;26.15;14.80;;;;;;;11.31;44.30;102965.00;5055854;28;20466;-57
2022/03/23 06:32:09;;;;;;;26.15;16.08;;;;;;;11.31;44.52;102965.00;5061106;28;20049;-57
2022/03/23 06:34:36;;;;;;;23.92;15.13;;;;;;;11.30;44.56;102969.56;4710375;28;10000298;-57
2022/03/23 06:37:05;;;;;;;23.38;15.23;;;;;;;11.30;44.08;102974.94;5058600;28;20667;-57
2022/03/23 06:39:33;;;;;;;25.42;15.52;;;;;;;11.28;44.23;102971.56;5047512;28;20103;-56
2022/03/23 06:42:03;;;;;;;25.73;14.90;;;;;;;11.31;44.49;102976.63;5046757;28;20117;-57
2022/03/23 06:44:30;;;;;;;25.60;16.25;;;;;;;11.33;44.11;102984.50;5048836;28;20140;-59
2022/03/23 06:46:58;;;;;;;25.83;16.33;;;;;;;11.33;44.23;102977.28;5056511;28;20055;-56
2022/03/23 06:49:26;;;;;;;26.67;15.60;;;;;;;11.36;44.16;102989.56;5057386;28;20524;-56
2022/03/23 06:51:54;;;;;;;24.73;16.17;;;;;;;11.38;43.99;102988.34;5054836;28;20076;-57
2022/03/23 06:54:21;;;;;;;28.70;15.68;;;;;;;11.40;44.09;102988.19;5050534;28;20065;-57
2022/03/23 06:56:51;;;;;;;25.50;16.23;;;;;;;11.41;43.97;102992.56;5050471;28;20079;-56
2022/03/23 06:59:21;;;;;;;29.33;15.80;;;;;;;11.43;44.24;102995.91;5053276;28;20076;-56
2022/03/23 07:01:49;;;;;;;26.75;16.17;;;;;;;11.44;44.10;102992.22;5048168;28;20124;-56
2022/03/23 07:04:17;;;;;;;25.33;16.45;;;;;;;11.46;44.00;102992.88;5057519;28;20113;-57
2022/03/23 07:06:45;;;;;;;35.88;16.63;;;;;;;11.48;44.09;103000.78;5057849;28;20125;-58
2022/03/23 07:11:58;;;;;;;27.73;16.02;;;;;;;11.45;44.30;102993.88;5057492;28;20072;-58
2022/03/23 07:14:28;;;;;;;25.95;16.52;;;;;;;11.44;44.24;102999.44;5055705;28;20105;-58
2022/03/23 07:16:56;;;;;;;30.70;16.00;;;;;;;11.41;44.11;102998.78;5056069;28;20075;-57
2022/03/23 07:19:24;;;;;;;23.75;16.13;;;;;;;11.39;44.51;103005.34;5063186;28;20076;-58
2022/03/23 07:21:52;;;;;;;23.40;14.88;;;;;;;11.41;44.37;103003.31;5063267;28;20053;-58
2022/03/23 07:24:21;;;;;;;25.95;16.17;;;;;;;11.38;44.58;103012.59;5051407;28;20053;-57
2022/03/23 07:26:49;;;;;;;24.70;15.77;;;;;;;11.38;44.34;103009.06;5048275;28;20046;-58
2022/03/23 07:29:38;;;;;;;26.33;16.08;;;;;;;11.36;44.66;103006.53;5055760;28;20148;-58
2022/03/23 07:32:07;;;;;;;27.88;15.95;;;;;;;11.36;44.52;103011.94;5054531;28;20571;-58
2022/03/23 07:34:34;;;;;;;28.35;16.38;;;;;;;11.36;44.92;102997.63;5053502;28;20086;-59
2022/03/23 07:37:02;;;;;;;32.08;17.00;;;;;;;11.32;44.89;102999.00;5050625;28;20088;-58
2022/03/23 07:39:30;;;;;;;23.85;16.33;;;;;;;11.37;45.01;103007.38;5054244;28;20064;-58
2022/03/23 07:41:59;;;;;;;23.27;15.80;;;;;;;11.39;44.93;103008.03;5044793;28;20529;-57
2022/03/23 07:44:27;;;;;;;23.13;14.52;;;;;;;11.41;45.25;103014.09;5056474;28;20107;-58
2022/03/23 07:46:56;;;;;;;30.00;15.60;;;;;;;11.40;45.31;103012.41;5048213;28;20049;-58
2022/03/23 07:49:24;;;;;;;24.88;14.73;;;;;;;11.41;45.17;103014.09;5043786;28;20450;-59
2022/03/23 07:51:52;;;;;;;28.45;14.68;;;;;;;11.39;45.24;103014.28;5056748;28;20044;-58
2022/03/23 07:54:20;;;;;;;28.77;16.20;;;;;;;11.39;45.24;103014.28;5051612;28;20052;-58
2022/03/23 07:56:47;;;;;;;25.88;15.52;;;;;;;11.40;45.33;103015.94;5040355;28;20053;-59
2022/03/23 07:59:15;;;;;;;23.48;15.40;;;;;;;11.39;45.37;103016.97;5052680;28;20049;-59
2022/03/23 08:01:43;;;;;;;23.40;14.93;;;;;;;11.41;45.17;103025.72;5050943;28;20045;-59
2022/03/23 08:04:12;;;;;;;27.20;15.73;;;;;;;11.41;45.38;103019.47;5043562;28;20132;-57
2022/03/23 08:06:40;;;;;;;22.80;14.20;;;;;;;11.42;45.54;103026.53;5051750;28;20107;-59
2022/03/23 08:09:08;;;;;;;20.92;14.23;;;;;;;11.43;45.40;103033.59;5048317;28;20518;-59
2022/03/23 08:11:41;;;;;;;23.63;14.93;;;;;;;11.43;45.37;103027.38;5049165;28;20057;-59
2022/03/23 08:14:08;;;;;;;22.67;14.32;;;;;;;11.45;45.40;103036.13;5054851;28;20298;-59
2022/03/23 08:16:36;;;;;;;22.25;14.00;;;;;;;11.45;45.26;103030.75;5054132;28;20186;-57
2022/03/23 08:19:04;;;;;;;22.13;13.95;;;;;;;11.44;45.63;103029.91;5047867;28;20156;-59
2022/03/23 08:21:34;;;;;;;22.80;14.05;;;;;;;11.46;45.60;103029.72;5052748;28;20080;-57
2022/03/23 08:24:02;;;;;;;20.92;13.38;;;;;;;11.41;45.33;103022.19;5050462;28;20077;-57
2022/03/23 08:26:32;;;;;;;24.83;15.00;;;;;;;11.48;45.43;103033.94;5055085;28;20053;-58
2022/03/23 08:29:00;;;;;;;21.45;14.40;;;;;;;11.49;45.65;103024.84;5057405;28;20064;-58
2022/03/23 08:31:28;;;;;;;20.35;13.98;;;;;;;11.50;45.69;103028.38;5055575;28;20037;-59
2022/03/23 08:33:56;;;;;;;20.05;13.68;;;;;;;11.50;45.47;103028.38;5044413;28;20112;-59
2022/03/23 08:36:24;;;;;;;21.27;13.55;;;;;;;11.51;45.67;103024.66;5056784;28;20053;-59
2022/03/23 08:38:53;;;;;;;22.52;13.60;;;;;;;11.54;45.61;103024.31;5046171;28;20057;-59
2022/03/23 08:41:21;;;;;;;19.65;13.07;;;;;;;11.53;45.83;103030.72;5054384;28;20141;-58
2022/03/23 08:43:49;;;;;;;25.05;14.23;;;;;;;11.55;45.62;103023.28;5052680;28;20080;-58
2022/03/23 08:46:17;;;;;;;21.42;13.10;;;;;;;11.56;45.63;103024.97;5054881;28;20147;-59
2022/03/23 08:48:45;;;;;;;21.67;13.70;;;;;;;11.57;45.93;103022.09;5054088;28;20075;-59
2022/03/23 08:51:13;;;;;;;17.88;13.40;;;;;;;11.58;45.93;103028.34;5052432;28;20107;-58
2022/03/23 08:53:42;;;;;;;23.27;14.10;;;;;;;11.59;45.93;103030.00;5058730;28;20097;-58
2022/03/23 08:56:12;;;;;;;19.42;12.68;;;;;;;11.59;45.66;103030.84;5055624;28;20242;-58
2022/03/23 08:58:47;;;;;;;21.73;13.75;;;;;;;11.60;45.76;103029.84;5047343;28;20057;-59
2022/03/23 09:01:15;;;;;;;23.13;14.57;;;;;;;11.63;45.58;103028.66;5052082;28;20086;-58
2022/03/23 09:03:44;;;;;;;23.90;13.88;;;;;;;11.65;45.68;103040.09;5058742;28;20059;-58
2022/03/23 09:06:12;;;;;;;23.48;13.48;;;;;;;11.66;45.79;103029.13;5054499;28;20056;-58
2022/03/23 09:08:40;;;;;;;26.80;13.18;;;;;;;11.69;45.92;103031.47;5053398;28;20077;-57
2022/03/23 09:11:08;;;;;;;20.48;13.60;;;;;;;11.72;46.02;103032.97;5052211;28;20566;-58
2022/03/23 09:13:37;;;;;;;19.63;12.27;;;;;;;11.74;46.11;103030.94;5059582;28;20129;-58
2022/03/23 09:16:05;;;;;;;17.60;12.45;;;;;;;11.75;45.95;103032.63;5051045;28;20053;-58
2022/03/23 09:18:33;;;;;;;22.63;14.05;;;;;;;11.77;46.03;103033.31;5060845;28;20079;-58
2022/03/23 09:21:01;;;;;;;20.95;13.30;;;;;;;11.80;45.92;103030.28;5053682;28;20414;-58
2022/03/23 09:23:32;;;;;;;19.88;12.20;;;;;;;11.78;46.07;103018.84;5058997;28;20152;-59
2022/03/23 09:26:01;;;;;;;17.58;12.35;;;;;;;11.83;46.19;103021.84;5051102;28;20053;-58
2022/03/23 09:28:29;;;;;;;18.65;11.55;;;;;;;11.85;46.10;103032.44;5054848;28;20045;-59
2022/03/23 09:30:59;;;;;;;18.13;12.38;;;;;;;11.86;46.16;103026.03;5047576;28;20124;-58
2022/03/23 09:33:28;;;;;;;19.95;12.75;;;;;;;11.88;46.01;103015.94;5060928;28;20524;-59
2022/03/23 09:35:55;;;;;;;19.20;11.98;;;;;;;11.91;46.31;103029.88;5054586;28;20050;-58
2022/03/23 09:38:23;;;;;;;20.17;12.80;;;;;;;11.93;46.52;103027.84;5055628;28;20262;-58
2022/03/23 09:40:52;;;;;;;19.95;12.65;;;;;;;11.90;46.31;103013.88;5050712;28;20116;-57
2022/03/23 09:43:22;;;;;;;19.70;13.00;;;;;;;11.98;46.16;103033.53;5052543;28;20052;-57
2022/03/23 09:45:52;;;;;;;18.85;11.65;;;;;;;12.01;46.33;103024.25;5057254;28;20111;-58
2022/03/23 09:48:24;;;;;;;22.10;13.95;;;;;;;12.03;46.56;103019.53;5052059;28;20111;-64
2022/03/23 09:50:54;;;;;;;19.42;12.20;;;;;;;12.07;46.62;103031.63;5056955;28;20148;-57
2022/03/23 09:53:23;;;;;;;16.27;10.73;;;;;;;12.10;46.90;103030.44;5056258;28;20117;-57
2022/03/23 09:55:52;;;;;;;20.52;11.60;;;;;;;12.11;46.77;103034.81;5058592;28;20072;-58
2022/03/23 09:58:20;;;;;;;18.20;12.77;;;;;;;12.12;46.98;103029.25;5052999;28;20049;-58
2022/03/23 10:00:49;;;;;;;21.48;12.57;;;;;;;12.15;46.67;103031.56;5050867;28;20103;-57
2022/03/23 10:03:52;;;;;;;19.02;11.95;;;;;;;12.19;47.05;103027.47;5059632;28;20065;-57
2022/03/23 10:06:55;;;;;;;18.63;11.98;;;;;;;12.24;46.91;103029.66;5049762;28;20084;-58
2022/03/23 10:10:11;;;;;;;16.88;11.38;;;;;;;12.30;46.92;103037.00;5046512;28;20045;-58
2022/03/23 10:13:25;;;;;;;20.48;11.50;;;;;;;12.33;47.22;103040.19;5050283;28;20084;-57
2022/03/23 10:16:46;;;;;;;22.05;13.88;;;;;;;12.37;46.84;103038.81;5056200;28;20139;-58
2022/03/23 10:19:14;;;;;;;20.10;12.70;;;;;;;12.41;47.06;103033.06;5058162;28;20507;-58
2022/03/23 10:21:43;;;;;;;20.67;12.40;;;;;;;12.43;46.85;103037.25;5067330;28;20538;-57
2022/03/23 10:24:34;;;;;;;20.05;13.57;;;;;;;12.47;46.31;103037.72;5057315;28;20091;-58
2022/03/23 10:27:13;;;;;;;20.60;12.52;;;;;;;12.50;46.48;103032.81;5056254;28;20106;-57
2022/03/23 10:29:43;;;;;;;17.95;12.48;;;;;;;12.54;46.49;103035.97;5059640;28;20049;-58
2022/03/23 10:32:13;;;;;;;19.52;12.43;;;;;;;12.59;46.75;103029.03;5045617;28;20049;-57
2022/03/23 10:34:47;;;;;;;24.55;13.50;;;;;;;12.62;46.38;103025.97;5052088;28;20045;-58
2022/03/23 10:37:24;;;;;;;21.58;12.93;;;;;;;12.65;45.98;103022.06;5058613;28;20049;-58
2022/03/23 10:39:53;;;;;;;26.52;15.25;;;;;;;12.68;44.36;103025.25;5057408;28;20048;-58
2022/03/23 10:42:22;;;;;;;19.45;12.02;;;;;;;12.73;44.92;103021.16;5041770;28;20100;-59
2022/03/23 10:44:51;;;;;;;21.48;12.48;;;;;;;12.78;45.75;103018.75;5053799;28;20103;-59
2022/03/23 10:47:26;;;;;;;20.30;13.27;;;;;;;12.81;45.72;103013.81;5057449;28;20080;-59
2022/03/23 10:49:54;;;;;;;20.35;13.68;;;;;;;12.86;44.96;103013.25;5058793;28;20080;-57
2022/03/23 10:52:27;;;;;;;16.90;11.95;;;;;;;12.90;46.65;103010.03;5060277;28;20072;-58
2022/03/23 10:54:57;;;;;;;21.83;12.52;;;;;;;12.98;47.24;103015.34;5057349;28;20049;-58
2022/03/23 10:57:56;;;;;;;18.45;11.98;;;;;;;13.03;47.01;103012.91;5050718;28;20052;-59
2022/03/23 11:00:30;;;;;;;16.85;11.38;;;;;;;13.10;47.27;103009.47;5053324;28;20049;-57
2022/03/23 11:02:59;;;;;;;19.80;12.10;;;;;;;13.16;47.87;103011.44;5060173;28;20482;-58
2022/03/23 11:05:32;;;;;;;17.02;10.77;;;;;;;13.19;47.32;103005.69;5051472;28;20053;-58
2022/03/23 11:08:09;;;;;;;21.13;12.85;;;;;;;13.28;47.95;103008.09;5057871;28;20045;-57
2022/03/23 11:16:22;;;;;;;18.15;12.32;;;;;;;13.58;48.20;103000.81;4963785;28;20134;-59
2022/03/23 11:18:56;;;;;;;19.83;11.15;;;;;;;13.64;48.09;103004.63;4964843;28;20051;-59
2022/03/23 11:21:24;;;;;;;19.20;12.65;;;;;;;13.83;46.87;102997.78;4962315;28;20075;-59
2022/03/23 11:23:53;;;;;;;19.98;12.45;;;;;;;13.90;47.10;103001.34;4966718;28;20477;-57
2022/03/23 11:26:22;;;;;;;19.00;12.23;;;;;;;13.92;48.11;102999.31;4963436;28;20058;-57
2022/03/23 11:28:52;;;;;;;17.92;11.70;;;;;;;13.99;47.43;102995.63;4973409;28;20568;-58
2022/03/23 11:31:20;;;;;;;18.48;11.05;;;;;;;14.01;47.98;102990.03;4962942;28;20058;-59
2022/03/23 11:33:51;;;;;;;14.07;9.32;;;;;;;14.04;47.72;102994.22;4977770;28;20141;-58
2022/03/23 11:36:20;;;;;;;18.48;9.60;;;;;;;14.07;48.08;102988.44;4968188;28;20137;-59
2022/03/23 11:38:51;;;;;;;16.70;9.98;;;;;;;14.08;47.87;102984.69;4969994;28;20126;-59